Time;durP1;ratioP1;P1;durP2;ratioP2;P2;SDS_P1;SDS_P2;PMS_P1;PMS_P2;Temp;Humidity;BMP_temperature;BMP_pressure;BME280_temperature;BME280_humidity;BME280_pressure;Samples;Min_cycle;Max_cycle;Signal;HPM_P1;HPM_P2
2022/07/08 00:01:20;;;;;;;3.50;0.70;;;18.60;94.30;;;;;;4992903;28;20190;-82
2022/07/08 00:03:46;;;;;;;4.17;1.00;;;18.60;94.40;;;;;;4992806;28;20542;-82
2022/07/08 00:06:12;;;;;;;2.50;0.80;;;18.50;94.50;;;;;;4992739;28;20203;-82
2022/07/08 00:08:38;;;;;;;4.47;1.27;;;18.50;94.60;;;;;;4993058;28;20289;-82
2022/07/08 00:11:03;;;;;;;2.23;0.70;;;18.40;94.90;;;;;;4993021;28;20598;-82
2022/07/08 00:13:29;;;;;;;2.60;0.80;;;18.40;94.90;;;;;;4992555;28;20254;-82
2022/07/08 00:15:55;;;;;;;2.40;1.43;;;18.40;95.10;;;;;;4993300;28;20191;-78
2022/07/08 00:18:21;;;;;;;4.07;1.13;;;18.40;95.20;;;;;;4994159;28;20574;-78
2022/07/08 00:20:47;;;;;;;2.30;0.80;;;18.40;95.30;;;;;;4993146;28;20206;-77
2022/07/08 00:23:12;;;;;;;3.47;0.90;;;18.40;95.50;;;;;;4992217;28;20514;-77
2022/07/08 00:25:38;;;;;;;2.70;0.77;;;18.40;95.60;;;;;;4992839;28;20178;-77
2022/07/08 00:28:04;;;;;;;1.60;0.77;;;18.40;95.70;;;;;;4992614;28;20175;-77
2022/07/08 00:30:29;;;;;;;3.60;1.00;;;18.40;95.80;;;;;;4992326;28;20281;-77
2022/07/08 00:32:55;;;;;;;3.30;0.90;;;18.40;95.80;;;;;;4991950;28;20527;-79
2022/07/08 00:35:21;;;;;;;3.33;0.77;;;18.40;95.90;;;;;;4995580;28;20182;-78
2022/07/08 00:37:47;;;;;;;3.47;0.90;;;18.40;96.00;;;;;;5029183;23;20655;-75
2022/07/08 00:40:12;;;;;;;3.77;0.93;;;18.40;96.10;;;;;;5010831;28;20494;-75
2022/07/08 00:42:38;;;;;;;2.37;0.83;;;18.50;96.10;;;;;;5011352;28;20249;-75
2022/07/08 00:45:05;;;;;;;6.00;0.90;;;18.40;96.10;;;;;;4994019;28;20170;-76
2022/07/08 00:47:30;;;;;;;4.07;0.90;;;18.40;96.40;;;;;;5011661;28;20640;-76
2022/07/08 00:49:56;;;;;;;1.97;0.70;;;18.40;96.40;;;;;;5011525;28;21045;-75
2022/07/08 00:52:23;;;;;;;3.53;2.30;;;18.40;96.40;;;;;;4994857;28;20446;-76
2022/07/08 00:54:49;;;;;;;5.70;0.83;;;18.40;96.60;;;;;;5014151;28;20163;-76
2022/07/08 00:57:17;;;;;;;3.67;0.90;;;18.40;96.60;;;;;;5013857;28;20655;-76
2022/07/08 00:59:43;;;;;;;3.20;0.80;;;18.40;96.80;;;;;;4995264;28;20605;-76
2022/07/08 01:02:09;;;;;;;4.00;1.00;;;18.40;96.80;;;;;;4995287;28;20651;-75
2022/07/08 01:04:35;;;;;;;2.70;0.80;;;18.40;96.80;;;;;;5011367;28;20569;-75
2022/07/08 01:07:01;;;;;;;4.77;1.10;;;18.40;96.80;;;;;;5015702;28;20208;-76
2022/07/08 01:09:27;;;;;;;4.70;1.27;;;18.40;96.90;;;;;;5015703;28;20984;-76
2022/07/08 01:11:53;;;;;;;4.30;0.73;;;18.40;96.90;;;;;;5011495;28;20605;-76
2022/07/08 01:14:19;;;;;;;5.13;0.80;;;18.50;97.10;;;;;;4994316;28;20600;-76
2022/07/08 01:16:45;;;;;;;5.23;0.87;;;18.50;97.20;;;;;;5011632;28;20229;-76
2022/07/08 01:19:11;;;;;;;4.03;0.90;;;18.50;97.30;;;;;;5011819;28;20569;-76
2022/07/08 01:21:37;;;;;;;7.13;1.00;;;18.50;97.40;;;;;;4994099;28;20249;-76
2022/07/08 01:24:02;;;;;;;2.73;0.90;;;18.50;97.40;;;;;;5011187;28;20177;-76
2022/07/08 01:26:29;;;;;;;3.33;0.93;;;18.50;97.50;;;;;;5011525;28;20621;-76
2022/07/08 01:28:55;;;;;;;4.57;0.70;;;18.50;97.50;;;;;;5011607;28;20597;-76
2022/07/08 01:31:21;;;;;;;6.37;2.03;;;18.50;97.50;;;;;;5011035;28;20561;-76
2022/07/08 01:33:47;;;;;;;3.27;0.90;;;18.50;97.60;;;;;;5011050;28;20570;-74
2022/07/08 01:36:12;;;;;;;2.87;0.70;;;18.50;97.70;;;;;;5011492;28;20577;-75
2022/07/08 01:38:38;;;;;;;3.97;1.00;;;18.50;97.80;;;;;;5011429;28;20632;-75
2022/07/08 01:41:04;;;;;;;4.87;1.40;;;18.60;98.00;;;;;;5011292;28;20174;-75
2022/07/08 01:43:30;;;;;;;3.00;1.00;;;18.60;98.10;;;;;;5010988;28;20588;-75
2022/07/08 01:45:56;;;;;;;3.57;0.77;;;18.60;98.10;;;;;;5011709;28;20692;-76
2022/07/08 01:48:21;;;;;;;2.47;1.00;;;18.60;98.10;;;;;;5011822;28;20633;-75
2022/07/08 01:50:47;;;;;;;1.70;0.70;;;18.50;98.20;;;;;;4993630;28;20670;-74
2022/07/08 01:53:13;;;;;;;2.50;0.73;;;18.50;98.20;;;;;;4993552;28;20249;-76
2022/07/08 01:55:40;;;;;;;2.60;0.90;;;18.50;98.20;;;;;;5011516;28;20573;-75
2022/07/08 01:58:05;;;;;;;2.50;0.80;;;18.50;98.30;;;;;;5011844;28;20601;-76
2022/07/08 02:00:31;;;;;;;5.43;0.80;;;18.50;98.40;;;;;;4994449;28;21117;-76
2022/07/08 02:02:57;;;;;;;9.10;1.73;;;18.50;98.80;;;;;;5011684;28;20159;-76
2022/07/08 02:05:23;;;;;;;3.20;0.80;;;18.50;98.60;;;;;;5013371;28;20238;-76
2022/07/08 02:07:49;;;;;;;3.97;1.10;;;18.50;98.60;;;;;;4995134;28;21215;-76
2022/07/08 02:10:15;;;;;;;4.07;0.83;;;18.50;98.70;;;;;;5012727;28;20569;-76
2022/07/08 02:12:40;;;;;;;4.30;1.10;;;18.50;98.80;;;;;;5015938;28;20198;-75
2022/07/08 02:15:08;;;;;;;2.70;0.77;;;18.50;98.70;;;;;;5014224;28;20205;-76
2022/07/08 02:17:36;;;;;;;3.43;0.77;;;18.50;98.80;;;;;;4997017;28;20191;-75
2022/07/08 02:20:07;;;;;;;2.77;1.20;;;18.50;98.90;;;;;;5014140;28;20954;-75
2022/07/08 02:22:34;;;;;;;2.40;0.80;;;18.50;98.90;;;;;;5014542;28;20676;-75
2022/07/08 02:25:00;;;;;;;3.20;1.30;;;18.50;98.90;;;;;;5013975;28;20623;-75
2022/07/08 02:27:26;;;;;;;3.30;0.93;;;18.50;99.00;;;;;;4996747;28;20636;-75
2022/07/08 02:29:52;;;;;;;2.47;0.90;;;18.40;99.00;;;;;;4996493;28;20577;-74
2022/07/08 02:32:18;;;;;;;4.50;1.27;;;18.40;99.10;;;;;;5014585;28;20162;-75
2022/07/08 02:34:44;;;;;;;4.27;1.10;;;18.40;99.10;;;;;;5014037;28;20554;-75
2022/07/08 02:37:10;;;;;;;4.70;0.90;;;18.40;99.20;;;;;;4996528;28;20206;-76
2022/07/08 02:39:36;;;;;;;3.33;0.80;;;18.40;99.20;;;;;;5013973;28;20170;-75
2022/07/08 02:42:02;;;;;;;5.17;1.80;;;18.30;99.20;;;;;;5014374;28;20569;-74
2022/07/08 02:44:28;;;;;;;4.40;1.10;;;18.30;99.30;;;;;;5013536;28;20576;-75
2022/07/08 02:46:54;;;;;;;6.07;1.13;;;18.30;99.40;;;;;;4996673;28;20967;-75
2022/07/08 02:49:20;;;;;;;2.97;1.30;;;18.30;99.50;;;;;;5014077;28;20564;-75
2022/07/08 02:51:46;;;;;;;6.70;0.90;;;18.30;99.60;;;;;;5013822;28;20549;-75
2022/07/08 02:54:12;;;;;;;2.33;0.80;;;18.20;99.60;;;;;;4996056;28;20585;-75
2022/07/08 02:56:37;;;;;;;5.50;1.00;;;18.20;99.70;;;;;;4996261;28;20201;-76
2022/07/08 02:59:04;;;;;;;6.93;1.20;;;18.20;99.70;;;;;;5013854;28;20194;-76
2022/07/08 03:01:30;;;;;;;5.30;1.00;;;18.20;99.80;;;;;;5013366;28;20236;-76
2022/07/08 03:03:56;;;;;;;6.17;0.80;;;18.20;99.90;;;;;;5013337;28;20600;-75
2022/07/08 03:06:22;;;;;;;5.60;1.10;;;18.20;99.90;;;;;;5013727;28;21055;-75
2022/07/08 03:08:47;;;;;;;4.33;0.80;;;18.20;99.90;;;;;;5013607;28;20217;-75
2022/07/08 03:11:13;;;;;;;4.33;0.90;;;18.20;99.90;;;;;;4996021;28;20166;-75
2022/07/08 03:13:39;;;;;;;2.00;0.80;;;18.20;99.90;;;;;;5012982;28;20221;-75
2022/07/08 03:16:06;;;;;;;4.17;0.90;;;18.20;99.90;;;;;;4996467;28;20577;-76
2022/07/08 03:18:32;;;;;;;2.20;0.90;;;18.10;99.90;;;;;;4996523;28;20183;-76
2022/07/08 03:20:58;;;;;;;2.20;0.80;;;18.10;99.90;;;;;;4995556;28;20565;-76
2022/07/08 03:23:24;;;;;;;6.63;1.10;;;18.10;99.90;;;;;;5012306;28;20596;-76
2022/07/08 03:25:50;;;;;;;3.60;1.10;;;18.10;99.90;;;;;;4995804;28;20201;-76
2022/07/08 03:28:16;;;;;;;2.40;0.90;;;18.10;99.90;;;;;;5013181;28;20601;-76
2022/07/08 03:30:41;;;;;;;2.30;0.80;;;18.10;99.90;;;;;;5013143;28;20554;-75
2022/07/08 03:33:07;;;;;;;3.00;0.90;;;18.10;99.90;;;;;;4995090;28;20540;-75
2022/07/08 03:35:37;;;;;;;5.60;0.93;;;18.10;99.90;;;;;;5013329;28;20178;-75
2022/07/08 03:38:03;;;;;;;5.70;1.33;;;18.10;99.90;;;;;;5013070;28;20613;-75
2022/07/08 03:43:13;;;;;;;3.10;0.90;;;18.10;99.90;;;;;;5012531;28;20559;-76
2022/07/08 03:45:39;;;;;;;3.77;0.70;;;18.10;99.90;;;;;;5012987;28;20624;-76
2022/07/08 03:48:05;;;;;;;3.20;0.73;;;18.20;99.90;;;;;;5012792;28;20370;-76
2022/07/08 03:50:30;;;;;;;3.50;0.90;;;18.10;99.90;;;;;;4978908;28;20177;-76
2022/07/08 03:52:57;;;;;;;2.27;0.70;;;18.20;99.90;;;;;;5012538;28;20562;-76
2022/07/08 03:55:25;;;;;;;3.03;0.80;;;18.20;99.90;;;;;;5012929;28;20573;-76
2022/07/08 03:57:52;;;;;;;2.30;0.90;;;18.20;99.90;;;;;;5012543;28;20632;-76
2022/07/08 04:00:19;;;;;;;2.60;0.70;;;18.20;99.90;;;;;;4995002;28;20609;-76
2022/07/08 04:02:48;;;;;;;5.10;1.70;;;18.20;99.90;;;;;;4995205;28;20601;-76
2022/07/08 04:05:16;;;;;;;2.50;0.80;;;18.20;99.90;;;;;;5012249;28;20571;-75
2022/07/08 04:07:42;;;;;;;5.03;0.90;;;18.20;99.90;;;;;;4994929;28;20645;-75
2022/07/08 04:10:09;;;;;;;5.00;1.53;;;18.20;99.90;;;;;;5012356;28;20616;-75
2022/07/08 04:12:34;;;;;;;2.87;0.93;;;18.20;99.90;;;;;;5012415;28;20217;-75
2022/07/08 04:15:01;;;;;;;4.83;1.20;;;18.30;99.90;;;;;;5012160;28;20569;-75
2022/07/08 04:17:27;;;;;;;2.23;0.80;;;18.30;99.90;;;;;;5012515;28;20588;-76
2022/07/08 04:19:53;;;;;;;4.10;0.80;;;18.20;99.90;;;;;;5012241;28;20580;-75
2022/07/08 04:22:19;;;;;;;3.00;0.70;;;18.20;99.90;;;;;;4995518;28;21160;-76
2022/07/08 04:24:44;;;;;;;3.53;1.13;;;18.30;99.90;;;;;;5011922;28;20681;-75
2022/07/08 04:27:10;;;;;;;4.30;0.80;;;18.30;99.90;;;;;;5012200;28;20632;-75
2022/07/08 04:29:36;;;;;;;3.00;0.90;;;18.30;99.90;;;;;;5012122;28;20228;-75
2022/07/08 04:32:02;;;;;;;3.13;0.93;;;18.30;99.90;;;;;;5012335;28;20569;-75
2022/07/08 04:34:28;;;;;;;3.27;0.73;;;18.30;99.90;;;;;;5011118;28;20185;-75
2022/07/08 04:36:53;;;;;;;2.90;0.90;;;18.30;99.90;;;;;;5012005;28;20981;-75
2022/07/08 04:39:19;;;;;;;4.37;1.00;;;18.40;99.90;;;;;;5012204;28;20746;-75
2022/07/08 04:41:45;;;;;;;3.60;1.20;;;18.40;99.90;;;;;;5011672;28;20181;-75
2022/07/08 04:44:11;;;;;;;3.37;0.80;;;18.40;99.90;;;;;;5011502;28;20166;-74
2022/07/08 04:46:37;;;;;;;2.90;0.90;;;18.40;99.90;;;;;;5012859;28;20248;-75
2022/07/08 04:49:03;;;;;;;2.57;0.80;;;18.40;99.90;;;;;;4994371;28;20565;-75
2022/07/08 04:51:28;;;;;;;3.33;1.00;;;18.50;99.90;;;;;;5011702;28;20224;-75
2022/07/08 04:53:54;;;;;;;4.27;0.90;;;18.40;99.90;;;;;;4993882;28;20608;-75
2022/07/08 04:56:20;;;;;;;3.40;0.80;;;18.50;99.90;;;;;;4994755;28;20569;-75
2022/07/08 04:58:46;;;;;;;2.33;0.90;;;18.50;99.90;;;;;;5011747;28;20221;-76
2022/07/08 05:01:13;;;;;;;3.30;0.87;;;18.50;99.90;;;;;;5014649;28;20170;-74
2022/07/08 05:03:39;;;;;;;2.60;1.10;;;18.50;99.90;;;;;;4993843;28;20678;-76
2022/07/08 05:06:05;;;;;;;2.97;0.90;;;18.50;99.90;;;;;;5013272;28;20617;-76
2022/07/08 05:08:31;;;;;;;2.27;0.77;;;18.50;99.90;;;;;;5012876;28;20651;-75
2022/07/08 05:10:57;;;;;;;4.17;2.30;;;18.50;99.90;;;;;;5011643;28;20565;-75
2022/07/08 05:13:23;;;;;;;5.60;0.90;;;18.50;99.90;;;;;;4993875;28;20174;-75
2022/07/08 05:15:49;;;;;;;5.57;0.97;;;18.50;99.90;;;;;;5011758;28;20170;-76
2022/07/08 05:18:14;;;;;;;3.00;0.70;;;18.50;99.90;;;;;;5011881;28;20190;-75
2022/07/08 05:20:40;;;;;;;2.03;0.67;;;18.60;99.90;;;;;;4994702;28;20252;-75
2022/07/08 05:23:06;;;;;;;2.33;0.70;;;18.60;99.90;;;;;;5002139;28;20170;-75
2022/07/08 05:25:32;;;;;;;3.80;1.00;;;18.60;99.90;;;;;;5021142;28;20170;-76
2022/07/08 05:27:58;;;;;;;3.50;1.20;;;18.70;99.90;;;;;;5019087;28;20187;-76
2022/07/08 05:30:23;;;;;;;4.80;0.90;;;18.80;99.90;;;;;;5019019;28;20562;-75
2022/07/08 05:32:49;;;;;;;3.73;0.70;;;18.80;99.90;;;;;;5017161;28;20182;-75
2022/07/08 05:35:15;;;;;;;4.70;1.10;;;18.90;99.90;;;;;;5013505;28;20712;-75
2022/07/08 05:37:40;;;;;;;3.77;1.17;;;18.90;99.90;;;;;;5012038;28;20210;-75
2022/07/08 05:40:09;;;;;;;4.00;1.13;;;19.00;99.90;;;;;;4994578;28;20178;-76
2022/07/08 05:42:36;;;;;;;2.27;1.00;;;19.00;99.90;;;;;;5011422;28;20174;-75
2022/07/08 05:45:03;;;;;;;7.30;1.17;;;19.10;99.90;;;;;;4994052;28;20576;-76
2022/07/08 05:47:28;;;;;;;7.90;1.20;;;19.20;99.90;;;;;;4997044;28;20672;-75
2022/07/08 05:49:54;;;;;;;2.40;0.97;;;19.30;99.90;;;;;;5015774;28;20606;-77
2022/07/08 05:52:20;;;;;;;6.97;1.27;;;19.30;99.90;;;;;;5015294;28;21082;-75
2022/07/08 05:54:46;;;;;;;4.37;1.10;;;19.40;99.90;;;;;;5008182;28;20595;-75
2022/07/08 05:57:13;;;;;;;4.53;1.30;;;19.40;99.90;;;;;;5015107;28;20212;-76
2022/07/08 05:59:39;;;;;;;6.00;1.07;;;19.50;99.90;;;;;;5031089;28;20261;-75
2022/07/08 06:02:05;;;;;;;2.93;0.90;;;19.50;99.90;;;;;;5017205;28;20580;-76
2022/07/08 06:04:31;;;;;;;2.70;0.70;;;19.90;99.90;;;;;;5012435;28;20577;-76
2022/07/08 06:06:57;;;;;;;2.30;1.40;;;20.70;99.90;;;;;;4997038;28;20695;-75
2022/07/08 06:09:24;;;;;;;5.90;2.20;;;21.50;99.90;;;;;;4990749;28;20700;-78
2022/07/08 06:11:50;;;;;;;2.10;0.80;;;22.20;99.90;;;;;;4989634;28;20577;-75
2022/07/08 06:14:17;;;;;;;3.73;0.80;;;22.80;99.90;;;;;;4979284;28;20589;-75
2022/07/08 06:16:43;;;;;;;4.50;1.20;;;23.60;99.90;;;;;;5013833;28;20565;-75
2022/07/08 06:19:08;;;;;;;4.10;0.83;;;24.50;99.90;;;;;;5014562;28;20627;-76
2022/07/08 06:21:35;;;;;;;3.87;0.97;;;25.20;99.90;;;;;;5014084;28;20178;-76
2022/07/08 06:24:01;;;;;;;3.13;0.90;;;26.00;99.90;;;;;;5013924;28;20222;-76
2022/07/08 06:26:27;;;;;;;3.07;1.00;;;26.70;98.80;;;;;;5014378;28;20723;-76
2022/07/08 06:28:53;;;;;;;6.53;0.97;;;27.40;97.90;;;;;;4996760;28;20600;-75
2022/07/08 06:31:19;;;;;;;3.17;0.83;;;28.10;96.90;;;;;;5014095;28;20582;-77
2022/07/08 06:33:45;;;;;;;2.57;0.70;;;28.80;96.00;;;;;;5013823;28;20187;-76
2022/07/08 06:36:11;;;;;;;2.67;0.90;;;29.40;94.50;;;;;;4996423;28;20265;-76
2022/07/08 06:38:37;;;;;;;6.43;1.50;;;30.00;93.10;;;;;;5014060;28;20225;-76
2022/07/08 06:41:03;;;;;;;4.27;0.90;;;30.50;92.10;;;;;;4996356;28;20983;-75
2022/07/08 06:43:29;;;;;;;2.87;0.90;;;30.60;89.90;;;;;;4996178;28;20174;-74
2022/07/08 06:45:55;;;;;;;2.90;0.73;;;30.80;86.70;;;;;;5012606;23;20556;-76
2022/07/08 06:48:21;;;;;;;2.87;1.00;;;31.30;86.50;;;;;;4975060;28;20579;-76
2022/07/08 06:50:46;;;;;;;2.67;0.80;;;31.70;84.30;;;;;;4964992;28;20578;-76
2022/07/08 06:53:12;;;;;;;2.80;0.70;;;31.80;79.70;;;;;;4973551;28;20183;-76
2022/07/08 06:55:38;;;;;;;4.53;1.17;;;31.70;76.80;;;;;;4973790;28;20275;-76
2022/07/08 06:58:04;;;;;;;2.90;0.70;;;31.20;71.30;;;;;;4955942;29;20183;-76
2022/07/08 07:00:30;;;;;;;4.37;1.10;;;30.60;70.50;;;;;;4970760;28;20661;-76
2022/07/08 07:02:56;;;;;;;2.53;0.90;;;30.00;69.00;;;;;;4938296;29;20641;-76
2022/07/08 07:05:22;;;;;;;4.83;1.27;;;29.40;68.20;;;;;;4970202;28;20603;-76
2022/07/08 07:07:48;;;;;;;3.43;0.80;;;28.70;68.30;;;;;;4955466;29;20219;-76
2022/07/08 07:10:14;;;;;;;3.50;0.90;;;28.10;68.30;;;;;;4955191;29;20564;-77
2022/07/08 07:12:40;;;;;;;4.37;1.30;;;27.50;68.60;;;;;;4955347;29;20949;-76
2022/07/08 07:15:07;;;;;;;4.23;0.80;;;26.90;69.40;;;;;;4937462;29;20671;-77
2022/07/08 07:17:33;;;;;;;4.53;0.80;;;26.60;70.30;;;;;;4955429;29;20575;-76
2022/07/08 07:19:58;;;;;;;2.33;1.10;;;26.20;70.90;;;;;;4954321;29;20572;-76
2022/07/08 07:22:25;;;;;;;3.90;1.10;;;25.80;70.90;;;;;;4955103;29;20168;-75
2022/07/08 07:24:50;;;;;;;3.30;1.00;;;25.50;71.50;;;;;;4954889;28;20188;-75
2022/07/08 07:27:16;;;;;;;3.13;1.13;;;25.20;72.00;;;;;;4955123;29;20762;-76
2022/07/08 07:29:42;;;;;;;3.90;0.90;;;24.90;72.40;;;;;;4969789;28;20575;-76
2022/07/08 07:32:08;;;;;;;2.60;0.80;;;24.70;72.80;;;;;;4954586;29;20575;-79
2022/07/08 07:34:34;;;;;;;2.67;0.80;;;24.70;74.30;;;;;;4950175;28;20172;-77
2022/07/08 07:37:00;;;;;;;3.20;0.80;;;24.80;74.50;;;;;;4934470;29;20612;-76
2022/07/08 07:39:26;;;;;;;7.63;1.10;;;24.80;73.60;;;;;;4953646;29;20243;-76
2022/07/08 07:41:51;;;;;;;2.23;0.70;;;24.70;72.80;;;;;;4954625;29;20248;-77
2022/07/08 07:44:17;;;;;;;2.43;0.80;;;24.60;72.50;;;;;;4956488;28;20540;-76
2022/07/08 07:46:43;;;;;;;4.53;1.00;;;24.70;73.90;;;;;;4954532;28;20196;-77
2022/07/08 07:49:09;;;;;;;2.63;0.80;;;25.20;76.20;;;;;;4954525;29;20188;-78
2022/07/08 07:51:34;;;;;;;3.13;0.90;;;26.10;78.70;;;;;;4954207;29;20592;-77
2022/07/08 07:54:00;;;;;;;3.30;0.80;;;26.80;77.50;;;;;;4952911;29;20168;-78
2022/07/08 07:56:26;;;;;;;2.40;0.80;;;27.10;74.20;;;;;;4953481;29;20227;-76
2022/07/08 07:58:52;;;;;;;2.83;1.00;;;27.30;73.10;;;;;;4954934;29;20627;-76
2022/07/08 08:01:18;;;;;;;2.13;1.00;;;27.50;71.70;;;;;;4958408;29;20243;-78
2022/07/08 08:03:44;;;;;;;3.40;1.20;;;27.60;70.60;;;;;;4952504;29;20200;-78
2022/07/08 08:06:10;;;;;;;3.00;0.80;;;27.60;69.00;;;;;;4937682;29;20698;-78
2022/07/08 08:08:36;;;;;;;2.90;0.80;;;27.40;67.10;;;;;;4926324;29;20696;-78
2022/07/08 08:11:02;;;;;;;1.60;0.63;;;27.20;66.10;;;;;;4933927;29;20180;-78
2022/07/08 08:13:28;;;;;;;3.00;0.80;;;26.90;65.80;;;;;;4934448;29;20244;-76
2022/07/08 08:15:55;;;;;;;3.70;1.00;;;27.10;67.90;;;;;;4935388;29;20612;-78
2022/07/08 08:18:21;;;;;;;2.33;1.37;;;27.60;69.40;;;;;;4934024;29;21143;-78
2022/07/08 08:20:47;;;;;;;3.80;0.70;;;28.10;69.60;;;;;;4935286;29;20573;-78
2022/07/08 08:23:13;;;;;;;2.90;0.80;;;28.70;68.80;;;;;;4933254;29;20577;-78
2022/07/08 08:25:39;;;;;;;1.90;0.80;;;29.20;67.00;;;;;;4951164;28;20275;-78
2022/07/08 08:28:05;;;;;;;3.00;0.83;;;29.50;66.40;;;;;;4937159;29;20176;-78
2022/07/08 08:30:31;;;;;;;3.50;0.67;;;30.00;65.20;;;;;;4938566;29;20568;-79
2022/07/08 08:32:57;;;;;;;3.90;1.00;;;30.40;64.70;;;;;;4936793;29;20568;-78
2022/07/08 08:35:24;;;;;;;2.50;1.17;;;31.10;64.30;;;;;;4953906;28;21178;-79
2022/07/08 08:37:50;;;;;;;3.03;1.00;;;31.80;62.70;;;;;;4954237;29;20715;-79
2022/07/08 08:40:18;;;;;;;2.80;0.80;;;32.40;60.60;;;;;;4953984;29;20582;-78
2022/07/08 08:42:44;;;;;;;3.57;0.80;;;32.80;59.70;;;;;;4952582;29;20646;-78
2022/07/08 08:45:10;;;;;;;2.03;0.80;;;33.30;59.60;;;;;;4953162;28;20638;-77
2022/07/08 08:47:37;;;;;;;2.57;0.97;;;33.70;57.80;;;;;;4953644;29;20625;-78
2022/07/08 08:52:55;;;;;;;1.90;0.60;;;34.80;55.10;;;;;;4936524;29;20619;-78
2022/07/08 08:55:28;;;;;;;4.73;0.90;;;35.40;53.60;;;;;;4937325;29;20663;-74
2022/07/08 08:57:58;;;;;;;1.97;0.73;;;35.90;53.20;;;;;;4953700;29;20947;-77
2022/07/08 09:00:28;;;;;;;2.43;0.70;;;36.10;50.80;;;;;;4953407;29;20580;-76
2022/07/08 09:02:55;;;;;;;3.70;0.70;;;35.70;48.20;;;;;;4953413;29;20595;-76
2022/07/08 09:05:22;;;;;;;4.67;1.00;;;35.50;48.00;;;;;;4951372;28;21014;-76
2022/07/08 09:07:48;;;;;;;1.80;0.60;;;35.50;48.40;;;;;;4952287;29;20636;-76
2022/07/08 09:10:15;;;;;;;3.00;1.00;;;35.60;48.10;;;;;;4953572;29;20680;-76
2022/07/08 09:13:12;;;;;;;4.67;0.90;;;35.80;47.60;;;;;;4953623;29;20180;-76
2022/07/08 09:15:43;;;;;;;4.70;0.70;;;35.70;47.60;;;;;;4953458;28;20666;-77
2022/07/08 09:18:20;;;;;;;3.83;1.00;;;35.80;46.70;;;;;;4953477;29;20596;-75
2022/07/08 09:20:53;;;;;;;3.63;0.90;;;36.00;46.80;;;;;;4955496;28;20591;-76
2022/07/08 09:23:21;;;;;;;1.90;0.73;;;36.20;47.20;;;;;;4957401;29;20949;-77
2022/07/08 09:25:52;;;;;;;3.33;0.80;;;36.70;46.70;;;;;;4955943;29;20627;-76
2022/07/08 09:28:33;;;;;;;2.50;1.27;;;37.10;45.40;;;;;;4956319;29;20564;-76
2022/07/08 09:31:01;;;;;;;3.03;1.00;;;37.50;45.30;;;;;;4957051;29;20918;-77
2022/07/08 09:33:28;;;;;;;3.50;1.00;;;37.80;44.00;;;;;;4957348;29;20576;-78
2022/07/08 09:35:55;;;;;;;3.10;0.90;;;38.00;43.70;;;;;;4957279;28;20675;-76
2022/07/08 09:38:23;;;;;;;2.75;0.90;;;38.30;43.20;;;;;;4960290;28;20723;-78
2022/07/08 09:41:02;;;;;;;1.53;0.70;;;38.30;39.80;;;;;;4954853;29;20179;-78
2022/07/08 09:43:29;;;;;;;1.80;0.70;;;38.50;41.00;;;;;;4960815;29;20563;-79
2022/07/08 09:46:02;;;;;;;3.53;1.00;;;38.70;41.70;;;;;;4958332;28;20706;-77
2022/07/08 09:48:29;;;;;;;2.40;1.00;;;39.00;41.10;;;;;;4939983;29;20571;-76
2022/07/08 09:50:55;;;;;;;6.20;1.40;;;39.20;40.40;;;;;;4955737;29;21015;-76
2022/07/08 09:53:23;;;;;;;2.53;1.10;;;39.20;39.60;;;;;;4957255;29;20670;-76
2022/07/08 09:55:54;;;;;;;3.80;0.80;;;39.30;39.30;;;;;;4954880;28;20192;-77
2022/07/08 09:58:24;;;;;;;2.47;0.90;;;39.50;39.00;;;;;;4957182;29;20571;-77
2022/07/08 10:00:55;;;;;;;2.70;1.00;;;39.60;38.20;;;;;;4939434;29;20568;-77
2022/07/08 10:03:23;;;;;;;3.07;0.90;;;39.70;38.20;;;;;;4956667;29;20642;-78
2022/07/08 10:05:49;;;;;;;5.33;1.03;;;39.90;38.50;;;;;;4956335;28;20592;-77
2022/07/08 10:08:17;;;;;;;3.10;0.80;;;40.10;38.20;;;;;;4956705;29;20924;-75
2022/07/08 10:10:45;;;;;;;2.90;1.20;;;39.90;37.20;;;;;;4956040;29;20938;-76
2022/07/08 10:13:11;;;;;;;5.40;1.27;;;39.60;36.60;;;;;;4955837;28;20996;-77
2022/07/08 10:15:38;;;;;;;2.33;0.70;;;39.50;37.00;;;;;;4956346;28;20949;-76
2022/07/08 10:18:16;;;;;;;2.30;0.90;;;39.40;37.20;;;;;;4956089;28;21305;-76
2022/07/08 10:20:46;;;;;;;2.07;0.60;;;39.50;37.40;;;;;;4937771;29;20640;-77
2022/07/08 10:23:24;;;;;;;5.60;0.90;;;39.60;36.80;;;;;;4956250;29;20588;-77
2022/07/08 10:25:51;;;;;;;2.40;0.83;;;39.60;37.50;;;;;;4949031;28;20627;-77
2022/07/08 10:28:17;;;;;;;3.10;0.67;;;39.50;36.20;;;;;;4957338;29;20592;-75
2022/07/08 10:30:45;;;;;;;3.83;1.00;;;39.50;36.40;;;;;;4943694;29;20595;-75
2022/07/08 10:33:16;;;;;;;4.10;1.00;;;39.20;35.90;;;;;;4938161;29;20180;-77
2022/07/08 10:36:17;;;;;;;1.97;0.87;;;38.90;35.60;;;;;;4956064;28;20674;-76
2022/07/08 10:38:43;;;;;;;2.40;0.70;;;38.90;36.70;;;;;;4928814;29;20610;-76
2022/07/08 10:41:17;;;;;;;5.93;1.20;;;38.80;36.00;;;;;;4956225;29;20946;-76
2022/07/08 10:43:54;;;;;;;2.77;0.80;;;38.70;35.80;;;;;;4952622;29;20952;-76
2022/07/08 10:46:21;;;;;;;2.53;0.70;;;38.80;36.20;;;;;;4938502;29;20681;-76
2022/07/08 10:48:48;;;;;;;2.87;0.60;;;38.80;35.70;;;;;;4958617;28;20603;-76
2022/07/08 10:51:20;;;;;;;2.17;0.70;;;38.70;35.40;;;;;;4975017;28;20607;-76
2022/07/08 10:53:52;;;;;;;2.30;0.70;;;38.50;35.20;;;;;;4971577;28;20935;-76
2022/07/08 10:56:53;;;;;;;2.03;0.80;;;38.20;34.80;;;;;;4956396;28;20631;-76
2022/07/08 10:59:20;;;;;;;2.97;1.27;;;37.60;34.90;;;;;;4973915;28;20682;-75
2022/07/08 11:01:51;;;;;;;2.00;0.90;;;37.00;34.70;;;;;;4973556;28;20574;-77
2022/07/08 11:04:27;;;;;;;6.13;1.43;;;36.40;35.40;;;;;;4956384;28;20637;-77
2022/07/08 11:06:56;;;;;;;1.70;0.70;;;35.80;35.00;;;;;;4976574;28;20635;-77
2022/07/08 11:09:23;;;;;;;2.10;0.70;;;35.10;36.00;;;;;;4974933;28;20596;-76
2022/07/08 11:11:50;;;;;;;6.33;2.40;;;34.60;36.30;;;;;;4974044;28;20578;-76
2022/07/08 11:14:16;;;;;;;3.57;2.70;;;34.30;36.50;;;;;;4957132;28;20667;-77
2022/07/08 11:16:42;;;;;;;3.43;2.07;;;34.10;37.10;;;;;;4957545;28;20609;-76
2022/07/08 11:19:07;;;;;;;3.10;1.20;;;33.90;37.40;;;;;;4974781;28;20579;-77
2022/07/08 11:21:33;;;;;;;2.90;0.90;;;33.80;37.40;;;;;;4957136;28;20639;-76
2022/07/08 11:23:59;;;;;;;3.13;0.80;;;33.60;37.40;;;;;;4956780;28;20686;-77
2022/07/08 11:26:25;;;;;;;2.90;1.07;;;33.40;37.50;;;;;;4974568;28;20738;-77
2022/07/08 11:28:51;;;;;;;2.13;0.63;;;33.10;37.60;;;;;;4974576;28;20611;-77
2022/07/08 11:31:24;;;;;;;2.53;0.93;;;32.90;38.10;;;;;;4974389;28;20571;-77
2022/07/08 11:33:50;;;;;;;3.40;1.20;;;32.70;38.40;;;;;;4974426;28;20567;-76
2022/07/08 11:36:17;;;;;;;2.93;0.80;;;32.60;38.60;;;;;;4974408;28;20604;-77
2022/07/08 11:38:48;;;;;;;2.83;1.27;;;32.60;39.20;;;;;;4974599;28;20213;-76
2022/07/08 11:41:14;;;;;;;2.77;1.00;;;32.80;39.90;;;;;;4973528;28;20910;-77
2022/07/08 11:43:41;;;;;;;2.97;0.70;;;33.00;40.20;;;;;;4975081;28;20568;-79
2022/07/08 11:46:19;;;;;;;3.73;0.97;;;33.10;39.80;;;;;;4974066;28;20641;-79
2022/07/08 11:48:45;;;;;;;2.63;0.67;;;33.10;39.30;;;;;;4974473;28;20584;-78
2022/07/08 11:51:17;;;;;;;3.30;1.13;;;33.00;39.00;;;;;;4973437;28;20935;-78
2022/07/08 11:53:43;;;;;;;2.67;0.63;;;32.80;38.70;;;;;;4974371;28;20575;-76
2022/07/08 11:56:09;;;;;;;1.90;0.80;;;32.50;39.00;;;;;;4973006;28;21414;-76
2022/07/08 11:58:35;;;;;;;2.17;0.80;;;32.40;39.60;;;;;;4974335;28;20589;-76
2022/07/08 12:01:02;;;;;;;2.33;0.77;;;32.40;40.00;;;;;;4973340;28;20203;-77
2022/07/08 12:03:28;;;;;;;4.40;0.70;;;32.30;40.40;;;;;;4942974;29;20606;-77
2022/07/08 12:05:54;;;;;;;3.10;0.97;;;32.40;40.80;;;;;;4956348;28;20628;-77
2022/07/08 12:08:19;;;;;;;3.23;1.10;;;32.40;40.90;;;;;;4954593;29;20645;-77
2022/07/08 12:10:45;;;;;;;3.80;0.70;;;32.60;41.00;;;;;;4954229;29;20178;-76
2022/07/08 12:13:11;;;;;;;6.37;0.70;;;32.70;41.10;;;;;;4954202;29;21165;-77
2022/07/08 12:15:37;;;;;;;1.97;0.67;;;32.70;40.70;;;;;;4921265;29;20606;-77
2022/07/08 12:18:06;;;;;;;4.13;1.00;;;32.60;40.40;;;;;;4954622;29;20631;-77
2022/07/08 12:20:37;;;;;;;2.90;0.60;;;32.50;40.20;;;;;;4956324;29;20600;-76
2022/07/08 12:23:04;;;;;;;3.93;0.70;;;32.40;40.20;;;;;;4954060;29;20671;-77
2022/07/08 12:25:49;;;;;;;3.03;0.80;;;32.10;39.90;;;;;;4953918;28;20602;-76
2022/07/08 12:28:22;;;;;;;2.90;0.80;;;31.70;40.40;;;;;;4936831;29;20591;-77
2022/07/08 12:30:48;;;;;;;2.87;0.80;;;31.50;40.10;;;;;;4936722;29;20577;-77
2022/07/08 12:33:23;;;;;;;2.30;0.80;;;31.20;40.10;;;;;;4936977;29;21195;-77
2022/07/08 12:35:49;;;;;;;2.63;0.80;;;31.00;40.40;;;;;;4954125;28;20529;-77
2022/07/08 12:38:15;;;;;;;3.40;0.70;;;30.80;41.00;;;;;;4954018;29;20957;-77
2022/07/08 12:40:42;;;;;;;4.23;1.20;;;30.70;41.10;;;;;;4936813;29;20615;-77
2022/07/08 12:43:10;;;;;;;1.97;0.70;;;30.50;41.10;;;;;;4952263;29;20769;-77
2022/07/08 12:45:37;;;;;;;2.80;0.70;;;30.40;41.30;;;;;;4936977;29;20623;-76
2022/07/08 12:48:03;;;;;;;2.60;0.80;;;30.30;41.50;;;;;;4936836;29;20635;-77
2022/07/08 12:50:34;;;;;;;3.50;0.80;;;30.10;41.90;;;;;;4937440;29;21146;-77
2022/07/08 12:53:01;;;;;;;2.63;1.00;;;30.00;42.20;;;;;;4954669;29;20673;-76